Time;durP1;ratioP1;P1;durP2;ratioP2;P2;SDS_P1;SDS_P2;PMS_P1;PMS_P2;Temp;Humidity;BMP_temperature;BMP_pressure;BME280_temperature;BME280_humidity;BME280_pressure;Samples;Min_cycle;Max_cycle;Signal;HPM_P1;HPM_P2
2022/08/17 00:00:47;;;;;;;7.90;6.43;;;;;;;24.45;60.21;99673.03;6039627;23;97890;-77
2022/08/17 00:03:19;;;;;;;10.00;6.55;;;;;;;24.42;60.39;99682.19;6063933;23;97149;-79
2022/08/17 00:05:49;;;;;;;11.23;7.28;;;;;;;24.40;60.45;99685.06;6063557;23;98122;-77
2022/08/17 00:08:17;;;;;;;8.88;7.53;;;;;;;24.31;60.36;99671.72;6040142;23;100620;-77
2022/08/17 00:10:43;;;;;;;8.80;6.82;;;;;;;24.36;60.40;99680.97;6064215;23;96919;-78
2022/08/17 00:13:13;;;;;;;10.07;6.18;;;;;;;24.33;60.51;99683.97;6064836;23;97364;-79
2022/08/17 00:15:38;;;;;;;9.82;6.88;;;;;;;24.23;60.64;99666.28;6039625;23;97488;-77
2022/08/17 00:18:04;;;;;;;9.75;7.07;;;;;;;24.25;60.71;99673.19;6064680;23;101080;-78
2022/08/17 00:20:29;;;;;;;9.93;6.88;;;;;;;24.20;60.88;99672.78;6061747;23;97028;-78
2022/08/17 00:23:06;;;;;;;7.65;6.80;;;;;;;24.19;60.86;99668.44;6039299;23;97395;-77
2022/08/17 00:25:32;;;;;;;11.45;7.88;;;;;;;24.17;60.85;99670.44;6039075;23;101207;-77
2022/08/17 00:27:57;;;;;;;9.65;6.35;;;;;;;24.16;61.17;99677.63;6064325;23;97606;-78
2022/08/17 00:30:23;;;;;;;10.75;7.57;;;;;;;24.04;61.45;99673.50;6063766;23;96756;-79
2022/08/17 00:32:49;;;;;;;11.27;6.95;;;;;;;24.07;61.03;99673.22;6041089;23;97180;-77
2022/08/17 00:35:17;;;;;;;11.60;7.53;;;;;;;24.10;61.19;99677.41;6060377;23;97471;-77
2022/08/17 00:37:42;;;;;;;10.05;6.90;;;;;;;23.98;61.41;99673.31;6040347;23;97366;-77
2022/08/17 00:40:11;;;;;;;14.75;7.40;;;;;;;24.02;61.44;99680.03;6040496;23;97937;-77
2022/08/17 00:42:37;;;;;;;10.95;6.82;;;;;;;23.85;61.64;99660.28;6040526;23;96870;-77
2022/08/17 00:45:05;;;;;;;9.10;6.80;;;;;;;23.94;61.86;99675.44;6037857;23;101179;-77
2022/08/17 00:47:30;;;;;;;8.50;6.68;;;;;;;23.94;61.55;99670.09;6040060;23;97306;-77
2022/08/17 00:49:56;;;;;;;11.23;7.05;;;;;;;23.97;61.67;99677.81;6037006;23;96925;-77
2022/08/17 00:52:27;;;;;;;7.45;6.53;;;;;;;23.98;61.65;99674.13;6064851;23;97189;-77
2022/08/17 00:54:53;;;;;;;8.68;7.35;;;;;;;23.96;61.80;99676.13;6039186;23;97456;-77
2022/08/17 00:57:26;;;;;;;10.82;7.45;;;;;;;23.90;61.75;99672.22;6039241;23;99835;-79
2022/08/17 01:00:00;;;;;;;11.10;7.18;;;;;;;23.79;62.01;99664.41;6063851;23;96708;-77
2022/08/17 01:02:26;;;;;;;8.82;7.65;;;;;;;23.84;61.85;99682.72;6040827;23;97108;-78
2022/08/17 01:04:53;;;;;;;8.27;7.07;;;;;;;23.84;61.98;99675.50;6038459;23;100728;-78
2022/08/17 01:07:21;;;;;;;9.93;7.82;;;;;;;23.84;61.88;99675.50;6064497;23;97357;-79
2022/08/17 01:09:47;;;;;;;10.40;7.90;;;;;;;23.81;61.65;99670.47;6038899;23;96588;-77
2022/08/17 01:12:13;;;;;;;8.45;7.60;;;;;;;23.85;61.91;99684.38;6040339;23;96624;-79
2022/08/17 01:14:39;;;;;;;9.63;7.63;;;;;;;23.83;61.96;99681.88;6038844;23;100751;-77
2022/08/17 01:17:05;;;;;;;9.82;8.23;;;;;;;23.73;61.92;99656.97;6063862;23;97422;-77
2022/08/17 01:19:34;;;;;;;12.15;8.25;;;;;;;23.75;62.16;99679.13;6015392;23;97003;-77
2022/08/17 01:22:06;;;;;;;11.50;8.20;;;;;;;23.71;62.17;99669.72;6064411;23;97963;-77
2022/08/17 01:24:33;;;;;;;9.93;8.15;;;;;;;23.63;62.46;99665.06;6038923;23;97977;-77
2022/08/17 01:27:00;;;;;;;10.15;8.75;;;;;;;23.56;62.00;99647.06;6039231;23;101315;-78
2022/08/17 01:29:29;;;;;;;12.25;8.18;;;;;;;23.64;62.44;99664.06;6090195;23;96639;-78
2022/08/17 01:31:57;;;;;;;9.48;8.35;;;;;;;23.66;62.38;99666.59;6064376;23;96785;-78
2022/08/17 01:34:23;;;;;;;11.48;7.88;;;;;;;23.57;62.45;99662.16;6062622;23;98028;-78
2022/08/17 01:36:50;;;;;;;14.38;8.60;;;;;;;23.57;62.61;99646.09;6062128;23;99942;-78
2022/08/17 01:39:29;;;;;;;11.82;7.78;;;;;;;23.58;62.28;99656.63;6064002;23;97915;-77
2022/08/17 01:42:20;;;;;;;8.70;7.85;;;;;;;23.65;62.55;99671.13;6090199;23;96627;-78
2022/08/17 01:44:45;;;;;;;10.35;8.32;;;;;;;23.52;62.43;99645.69;6062775;23;97435;-77
2022/08/17 01:47:11;;;;;;;9.02;8.07;;;;;;;23.55;62.60;99664.13;6090283;23;99736;-77
2022/08/17 01:49:36;;;;;;;11.18;9.30;;;;;;;23.63;62.48;99666.91;6090690;23;97794;-77
2022/08/17 01:52:09;;;;;;;12.20;8.18;;;;;;;23.56;62.64;99676.53;6064059;23;96805;-78
2022/08/17 01:54:37;;;;;;;8.60;7.65;;;;;;;23.52;62.80;99662.59;6062138;23;97371;-78
2022/08/17 01:57:02;;;;;;;8.02;7.22;;;;;;;23.50;63.05;99673.47;6038491;23;101627;-78
2022/08/17 01:59:28;;;;;;;11.90;8.15;;;;;;;23.45;63.05;99659.69;6063811;23;97003;-77
2022/08/17 02:01:53;;;;;;;11.77;8.70;;;;;;;23.39;63.02;99656.78;6038405;23;96816;-78
2022/08/17 02:04:19;;;;;;;8.57;7.63;;;;;;;23.43;62.83;99659.00;6064032;23;97966;-78
2022/08/17 02:06:45;;;;;;;9.77;8.32;;;;;;;23.47;62.66;99671.09;6090697;23;97966;-78
2022/08/17 02:09:11;;;;;;;9.20;8.30;;;;;;;23.38;62.86;99647.03;6060828;23;96750;-78
2022/08/17 02:11:37;;;;;;;10.02;7.85;;;;;;;23.36;63.07;99659.72;6040667;23;96856;-77
2022/08/17 02:14:04;;;;;;;8.73;7.82;;;;;;;23.37;63.23;99661.44;6063981;23;101325;-77
2022/08/17 02:16:35;;;;;;;11.02;7.93;;;;;;;23.34;63.04;99659.91;6041447;23;101211;-78
2022/08/17 02:19:00;;;;;;;10.38;8.13;;;;;;;23.31;63.36;99660.19;6039990;23;97076;-77
2022/08/17 02:21:26;;;;;;;12.55;8.27;;;;;;;23.31;63.44;99656.69;6092231;23;96837;-78
2022/08/17 02:23:52;;;;;;;11.07;7.88;;;;;;;23.26;63.91;99655.28;6062403;23;97560;-77
2022/08/17 02:26:17;;;;;;;10.38;7.97;;;;;;;23.21;63.58;99654.91;6064293;23;99125;-78
2022/08/17 02:28:43;;;;;;;10.68;8.45;;;;;;;23.19;63.47;99648.84;6064781;23;96651;-78
2022/08/17 02:31:11;;;;;;;12.57;8.50;;;;;;;23.22;63.34;99645.03;6065585;23;97433;-78
2022/08/17 02:33:36;;;;;;;13.07;8.13;;;;;;;23.22;63.33;99645.03;6090337;23;97397;-78
2022/08/17 02:36:03;;;;;;;11.85;8.35;;;;;;;23.22;63.44;99653.91;6065396;23;97419;-77
2022/08/17 02:38:30;;;;;;;9.15;8.20;;;;;;;23.11;63.56;99639.88;6065772;23;97159;-78
2022/08/17 02:40:57;;;;;;;9.98;8.02;;;;;;;23.12;63.81;99650.44;6062931;23;97373;-78
2022/08/17 02:43:24;;;;;;;13.90;8.13;;;;;;;23.06;64.05;99653.69;6064296;23;98170;-78
2022/08/17 02:45:50;;;;;;;12.27;8.13;;;;;;;23.09;63.84;99645.38;6040937;23;98297;-79
2022/08/17 02:48:15;;;;;;;11.25;8.07;;;;;;;22.94;64.21;99646.84;6090637;23;97024;-78
2022/08/17 02:50:41;;;;;;;10.40;8.43;;;;;;;23.02;63.94;99663.03;6065258;23;96829;-77
2022/08/17 02:53:06;;;;;;;12.35;8.23;;;;;;;22.92;64.44;99660.38;6090025;23;97457;-77
2022/08/17 02:55:35;;;;;;;11.35;8.10;;;;;;;22.88;64.32;99650.09;6064207;23;100966;-77
2022/08/17 02:58:02;;;;;;;10.90;8.18;;;;;;;22.82;64.38;99643.50;6064834;23;97115;-78
2022/08/17 03:00:32;;;;;;;10.95;8.57;;;;;;;22.85;64.16;99651.22;6065443;23;96809;-77
2022/08/17 03:02:59;;;;;;;13.50;8.70;;;;;;;22.90;64.19;99667.69;6040356;23;98514;-77
2022/08/17 03:05:28;;;;;;;15.38;8.88;;;;;;;22.82;64.34;99648.84;6065185;23;97344;-77
2022/08/17 03:07:54;;;;;;;11.57;9.10;;;;;;;22.86;64.43;99674.31;6065109;23;96684;-78
2022/08/17 03:10:20;;;;;;;11.63;9.25;;;;;;;22.74;64.38;99662.94;6091100;23;97092;-79
2022/08/17 03:12:46;;;;;;;13.88;9.20;;;;;;;22.78;64.72;99669.72;6040394;23;98935;-81
2022/08/17 03:15:27;;;;;;;14.20;9.05;;;;;;;22.77;64.64;99683.22;6090155;23;97386;-77
2022/08/17 03:17:54;;;;;;;19.02;9.45;;;;;;;22.77;64.54;99676.03;6065199;23;96760;-78
2022/08/17 03:20:20;;;;;;;12.32;9.48;;;;;;;22.61;65.26;99670.47;6090704;23;96781;-78
2022/08/17 03:22:50;;;;;;;16.48;10.00;;;;;;;22.59;65.04;99669.75;6040571;23;101301;-77
2022/08/17 03:25:25;;;;;;;12.82;9.48;;;;;;;22.59;65.17;99677.78;6015227;23;101996;-77
2022/08/17 03:27:50;;;;;;;13.68;9.90;;;;;;;22.43;65.81;99680.22;6040681;23;97051;-78
2022/08/17 03:30:16;;;;;;;15.88;9.73;;;;;;;22.51;65.62;99680.34;6016861;23;96793;-77
2022/08/17 03:32:44;;;;;;;15.27;8.30;;;;;;;22.50;65.72;99684.00;6064450;23;101266;-77
2022/08/17 03:35:12;;;;;;;15.77;9.85;;;;;;;22.56;65.42;99688.78;6039005;23;97334;-77
2022/08/17 03:37:37;;;;;;;13.35;8.68;;;;;;;22.57;65.06;99672.59;6040528;23;96665;-77
2022/08/17 03:40:06;;;;;;;14.55;9.68;;;;;;;22.66;65.26;99686.06;6039820;23;96787;-77
2022/08/17 03:42:32;;;;;;;15.40;9.07;;;;;;;22.63;64.90;99689.91;6040523;23;97506;-78
2022/08/17 03:44:59;;;;;;;16.50;9.60;;;;;;;22.66;65.09;99696.75;6038432;23;101258;-77
2022/08/17 03:58:22;;;;;;;13.85;9.15;;;;;;;22.52;65.54;99701.59;6066294;23;97935;-78
2022/08/17 04:00:49;;;;;;;13.48;8.95;;;;;;;22.42;65.51;99682.03;6063891;23;96859;-81
2022/08/17 04:03:15;;;;;;;15.07;9.05;;;;;;;22.55;65.28;99701.31;6039148;23;100151;-77
2022/08/17 04:05:40;;;;;;;14.48;9.13;;;;;;;22.48;65.61;99692.16;6064497;23;101459;-76
2022/08/17 04:08:06;;;;;;;15.23;9.32;;;;;;;22.45;65.98;99705.81;6040224;23;97605;-78
2022/08/17 04:10:32;;;;;;;12.68;8.35;;;;;;;22.53;65.62;99699.75;6040625;23;96745;-77
2022/08/17 04:12:57;;;;;;;14.68;9.77;;;;;;;22.51;65.68;99699.06;6039214;23;100749;-77
2022/08/17 04:15:24;;;;;;;14.90;9.20;;;;;;;22.56;65.59;99710.16;6063498;23;97630;-77
2022/08/17 04:17:50;;;;;;;13.18;8.43;;;;;;;22.49;65.45;99693.03;6040460;23;97091;-79
2022/08/17 04:20:17;;;;;;;12.88;9.73;;;;;;;22.57;65.35;99699.34;6064877;23;96809;-77
2022/08/17 04:23:01;;;;;;;10.88;8.82;;;;;;;22.63;65.30;99713.97;6064264;23;97379;-77
2022/08/17 04:25:27;;;;;;;13.35;8.27;;;;;;;22.65;65.23;99722.69;6039429;23;98032;-77
2022/08/17 04:27:53;;;;;;;11.00;8.18;;;;;;;22.75;65.00;99720.84;6064078;23;96647;-77
2022/08/17 04:30:19;;;;;;;17.58;9.05;;;;;;;22.74;65.02;99718.28;6039961;23;97050;-75
2022/08/17 04:33:05;;;;;;;11.10;8.82;;;;;;;22.79;64.67;99718.72;6063975;23;97868;-77
2022/08/17 04:35:34;;;;;;;13.68;10.45;;;;;;;22.85;64.58;99719.97;6039407;23;101449;-77
2022/08/17 04:38:02;;;;;;;14.98;9.40;;;;;;;22.91;64.70;99730.06;6040747;23;96723;-77
2022/08/17 04:43:18;;;;;;;15.18;10.07;;;;;;;23.07;64.48;99727.66;6042841;23;101254;-78
2022/08/17 04:45:46;;;;;;;19.15;9.25;;;;;;;23.09;63.88;99714.97;6040278;23;97320;-77
2022/08/17 04:48:12;;;;;;;16.27;10.10;;;;;;;23.23;63.59;99727.88;6064386;23;96747;-77
2022/08/17 04:50:42;;;;;;;14.52;9.57;;;;;;;23.25;63.50;99715.19;6064842;23;96771;-79
2022/08/17 04:53:10;;;;;;;13.05;9.35;;;;;;;23.39;63.27;99729.91;6063098;23;97298;-78
2022/08/17 04:55:35;;;;;;;14.55;9.65;;;;;;;23.47;63.19;99735.38;6064082;23;97284;-77
2022/08/17 04:58:01;;;;;;;15.63;10.15;;;;;;;23.56;62.92;99730.97;6040003;23;96722;-78
2022/08/17 05:00:27;;;;;;;16.58;9.38;;;;;;;23.69;62.74;99728.75;6064730;23;97074;-77
2022/08/17 05:02:53;;;;;;;19.95;9.00;;;;;;;23.82;61.82;99728.41;6063509;23;97677;-77
2022/08/17 05:05:22;;;;;;;12.55;8.93;;;;;;;23.95;61.67;99728.88;6063766;23;97343;-79
2022/08/17 05:07:51;;;;;;;11.27;8.38;;;;;;;23.99;61.12;99721.38;6040532;23;97179;-77
2022/08/17 05:10:16;;;;;;;13.45;8.02;;;;;;;24.10;61.30;99725.69;6040442;23;97341;-79
2022/08/17 05:12:42;;;;;;;9.35;7.93;;;;;;;24.30;60.76;99735.25;6039680;23;99457;-80
2022/08/17 05:15:15;;;;;;;11.18;7.47;;;;;;;24.40;60.10;99733.31;6063144;23;101342;-77
2022/08/17 05:17:43;;;;;;;10.55;7.78;;;;;;;24.59;59.87;99743.03;6038842;23;97904;-78
2022/08/17 05:20:09;;;;;;;10.35;8.15;;;;;;;24.76;59.35;99732.44;6063269;23;97461;-77
2022/08/17 05:22:35;;;;;;;12.65;7.95;;;;;;;24.89;59.07;99730.16;6089851;23;97348;-77
2022/08/17 05:25:00;;;;;;;12.20;7.82;;;;;;;24.98;59.25;99731.03;6089125;23;98211;-78
2022/08/17 05:27:26;;;;;;;16.58;7.97;;;;;;;25.06;58.75;99721.19;6040317;23;96528;-77
2022/08/17 05:29:51;;;;;;;13.80;8.55;;;;;;;25.28;58.75;99719.00;6036033;23;96871;-78
2022/08/17 05:32:21;;;;;;;13.98;6.75;;;;;;;25.35;58.22;99714.66;6063403;23;97427;-78
2022/08/17 05:34:47;;;;;;;10.70;7.18;;;;;;;25.60;57.94;99725.47;6063495;23;97320;-79
2022/08/17 05:37:12;;;;;;;10.35;7.72;;;;;;;25.86;56.99;99723.56;6060642;23;96691;-78
2022/08/17 05:39:38;;;;;;;11.27;8.18;;;;;;;25.96;56.85;99723.41;6089877;23;97171;-78
2022/08/17 05:42:03;;;;;;;11.10;7.57;;;;;;;26.32;55.96;99725.78;6062104;23;97991;-78
2022/08/17 05:44:29;;;;;;;15.30;7.82;;;;;;;26.68;55.26;99723.63;6037909;23;101167;-78
2022/08/17 05:46:55;;;;;;;9.00;6.95;;;;;;;26.93;54.45;99716.31;6062915;23;97186;-79
2022/08/17 05:49:29;;;;;;;9.13;6.40;;;;;;;26.97;53.24;99706.06;6039873;23;97252;-79
2022/08/17 05:52:13;;;;;;;9.20;6.88;;;;;;;27.37;53.33;99726.63;6038774;23;100954;-75
2022/08/17 05:54:58;;;;;;;13.52;7.00;;;;;;;27.81;51.37;99723.41;6090640;23;97929;-75
2022/08/17 05:57:45;;;;;;;8.85;6.55;;;;;;;28.40;50.35;99731.72;6065575;23;97342;-75
2022/08/17 06:00:30;;;;;;;11.18;5.90;;;;;;;28.79;48.76;99729.88;6065574;23;96611;-74
2022/08/17 06:02:56;;;;;;;9.50;6.30;;;;;;;29.09;48.20;99737.03;6039143;23;100848;-78
2022/08/17 06:05:36;;;;;;;7.63;6.18;;;;;;;29.37;47.09;99736.34;6090449;23;97350;-77
2022/08/17 06:08:17;;;;;;;18.55;6.88;;;;;;;29.91;46.18;99730.56;6090364;23;96951;-74
2022/08/17 06:10:45;;;;;;;;;;;;;;;30.11;44.81;99729.94;6065338;23;96841;-75
2022/08/17 06:13:30;;;;;;;9.45;5.72;;;;;;;30.57;45.33;99732.22;6064026;23;97702;-75
2022/08/17 06:16:15;;;;;;;12.27;7.68;;;;;;;31.23;43.06;99737.28;6040515;23;101219;-77
2022/08/17 06:19:04;;;;;;;11.35;5.88;;;;;;;31.59;42.74;99742.47;6040125;23;96729;-75
2022/08/17 06:21:35;;;;;;;10.68;5.72;;;;;;;32.19;41.69;99729.94;6065372;23;96682;-76
2022/08/17 06:24:19;;;;;;;;;;;;;;;32.68;40.10;99739.59;6064336;23;97677;-73
2022/08/17 06:26:45;;;;;;;8.75;6.00;;;;;;;32.74;40.31;99728.94;6065957;23;97927;-79
2022/08/17 06:29:34;;;;;;;8.43;5.38;;;;;;;33.13;39.25;99725.31;6064083;23;97122;-74
2022/08/17 06:32:01;;;;;;;8.27;5.50;;;;;;;33.74;38.36;99730.31;6040274;23;97426;-75
2022/08/17 06:34:27;;;;;;;10.88;5.80;;;;;;;33.86;38.40;99727.78;6014651;23;101647;-74
2022/08/17 06:36:57;;;;;;;8.98;5.63;;;;;;;34.36;37.00;99730.59;6064571;23;97276;-75
2022/08/17 06:39:41;;;;;;;9.52;5.40;;;;;;;34.99;36.08;99736.94;6040199;23;96713;-73
2022/08/17 06:42:43;;;;;;;8.52;5.28;;;;;;;35.19;35.47;99740.31;6090962;23;96588;-75
2022/08/17 06:45:34;;;;;;;6.60;4.75;;;;;;;35.75;35.23;99732.94;6064044;23;98026;-73
2022/08/17 06:48:08;;;;;;;5.75;4.70;;;;;;;36.00;34.35;99741.81;6039919;23;101538;-73
2022/08/17 06:50:48;;;;;;;12.93;5.00;;;;;;;36.31;33.68;99737.19;6090308;23;96638;-73
2022/08/17 06:53:16;;;;;;;;;;;;;;;36.91;33.24;99727.94;6065271;23;98050;-73
2022/08/17 06:56:12;;;;;;;7.70;5.22;;;;;;;37.04;32.35;99733.22;6040161;23;101496;-73
2022/08/17 06:58:39;;;;;;;7.75;4.88;;;;;;;37.88;32.46;99743.72;6024874;23;97724;-72
2022/08/17 07:01:10;;;;;;;7.93;4.43;;;;;;;39.21;30.87;99739.56;6039629;23;96719;-73
2022/08/17 07:03:42;;;;;;;8.27;5.22;;;;;;;39.60;29.67;99726.63;6063601;23;96677;-73
2022/08/17 07:06:17;;;;;;;9.23;4.72;;;;;;;40.59;28.62;99730.06;6063663;23;97322;-73
2022/08/17 07:09:00;;;;;;;7.20;4.57;;;;;;;40.98;27.86;99735.28;6063655;23;98184;-73
2022/08/17 07:11:30;;;;;;;7.20;5.05;;;;;;;41.05;27.94;99739.50;6040686;23;97040;-74
2022/08/17 07:14:18;;;;;;;11.82;4.95;;;;;;;41.99;26.62;99734.06;6038953;23;96712;-74
2022/08/17 07:16:52;;;;;;;11.77;5.07;;;;;;;42.35;26.40;99739.59;6090755;23;98121;-73
2022/08/17 07:19:21;;;;;;;8.18;4.80;;;;;;;42.84;25.92;99725.22;6064336;23;97321;-73
2022/08/17 07:22:12;;;;;;;8.55;5.13;;;;;;;43.54;24.92;99737.16;6064300;23;97294;-84
2022/08/17 07:25:02;;;;;;;9.27;4.63;;;;;;;43.96;24.71;99726.72;6063326;23;98507;-77
2022/08/17 07:27:31;;;;;;;7.90;4.65;;;;;;;44.20;24.21;99740.63;6039802;23;97705;-77
2022/08/17 07:30:05;;;;;;;10.23;4.97;;;;;;;44.22;23.68;99736.44;6038483;23;100933;-78
2022/08/17 07:32:38;;;;;;;5.85;4.43;;;;;;;44.86;23.52;99722.59;6090249;23;96614;-79
2022/08/17 07:35:17;;;;;;;6.05;4.15;;;;;;;44.69;23.41;99739.63;6064963;23;96657;-77
2022/08/17 07:37:52;;;;;;;11.15;4.50;;;;;;;44.03;24.22;99724.44;6038429;23;97487;-77
2022/08/17 07:40:21;;;;;;;8.80;4.82;;;;;;;45.14;23.26;99749.41;6062173;23;98041;-78
2022/08/17 07:43:04;;;;;;;7.05;4.55;;;;;;;45.06;22.81;99733.41;6087735;23;96985;-78
2022/08/17 07:48:18;;;;;;;6.00;4.00;;;;;;;46.13;21.63;99738.66;6065189;23;97445;-77
2022/08/17 07:50:44;;;;;;;4.80;4.32;;;;;;;46.46;21.83;99743.13;6061859;23;97297;-80
2022/08/17 07:53:21;;;;;;;7.75;4.32;;;;;;;46.49;21.99;99738.91;6036325;23;97300;-81
2022/08/17 07:55:49;;;;;;;14.45;13.00;;;;;;;46.30;22.04;99733.41;6062490;23;97440;-74
2022/08/17 07:58:22;;;;;;;9.85;4.50;;;;;;;46.89;21.68;99742.06;6034652;23;98313;-75
2022/08/17 08:01:08;;;;;;;7.32;4.80;;;;;;;46.77;21.10;99741.75;6037832;23;98950;-75
2022/08/17 08:03:40;;;;;;;7.88;4.47;;;;;;;46.99;21.04;99741.06;6061260;23;96862;-77
2022/08/17 08:06:19;;;;;;;4.45;3.97;;;;;;;47.04;21.18;99743.75;6037222;23;97459;-78
2022/08/17 08:08:50;;;;;;;9.82;4.63;;;;;;;46.87;21.39;99733.25;6038258;23;98113;-79
2022/08/17 08:11:30;;;;;;;7.53;4.30;;;;;;;47.33;21.17;99735.06;6062937;23;98657;-77
2022/08/17 08:14:17;;;;;;;14.77;4.65;;;;;;;47.21;21.29;99738.38;6087386;23;96659;-77
2022/08/17 08:16:56;;;;;;;6.93;4.10;;;;;;;47.46;20.75;99734.25;6038828;23;96985;-77
2022/08/17 08:19:25;;;;;;;4.78;4.07;;;;;;;47.06;20.68;99745.06;6038489;23;97478;-76
2022/08/17 08:21:54;;;;;;;;;;;;;;;46.50;21.23;99737.78;6061010;23;98382;-77
2022/08/17 08:24:30;;;;;;;5.20;3.58;;;;;;;46.53;20.80;99728.84;6013315;23;97389;-78
2022/08/17 08:27:06;;;;;;;8.32;3.85;;;;;;;46.40;21.05;99738.78;6013396;23;97427;-84
2022/08/17 08:29:51;;;;;;;4.47;4.03;;;;;;;45.51;21.30;99741.50;6061161;23;100367;-82
2022/08/17 08:32:28;;;;;;;10.60;4.68;;;;;;;45.13;21.76;99733.13;6036004;23;100773;-82
2022/08/17 08:35:04;;;;;;;6.05;3.63;;;;;;;45.54;21.86;99744.50;6037344;23;97278;-83
2022/08/17 08:37:32;;;;;;;8.30;4.57;;;;;;;45.36;22.46;99740.56;6087726;23;97144;-84
2022/08/17 08:40:07;;;;;;;6.63;3.67;;;;;;;45.02;22.54;99735.13;6087076;23;97912;-85
2022/08/17 08:42:32;;;;;;;5.55;3.78;;;;;;;45.60;22.48;99746.09;6060905;23;100760;-84
2022/08/17 08:45:06;;;;;;;9.93;4.43;;;;;;;45.11;22.50;99747.22;6037034;23;97205;-82
2022/08/17 08:47:50;;;;;;;5.07;4.03;;;;;;;45.07;22.36;99731.50;6039283;23;96845;-82
2022/08/17 08:50:46;;;;;;;9.50;4.00;;;;;;;45.78;22.65;99727.81;6061382;23;97640;-81
2022/08/17 08:53:24;;;;;;;6.43;4.20;;;;;;;45.89;22.03;99733.19;6033559;23;101751;-81
2022/08/17 08:56:10;;;;;;;8.07;4.18;;;;;;;45.48;22.74;99737.38;6036921;23;97372;-83
2022/08/17 08:58:51;;;;;;;7.97;4.32;;;;;;;45.97;22.30;99729.78;6036577;23;97061;-82
2022/08/17 09:01:48;;;;;;;7.07;3.60;;;;;;;45.65;22.29;99728.56;6012520;23;101179;-83
2022/08/17 09:04:35;;;;;;;8.40;4.65;;;;;;;45.74;22.39;99732.31;6022276;23;101323;-82
2022/08/17 09:07:12;;;;;;;5.38;3.75;;;;;;;45.23;21.54;99726.63;6036032;23;96734;-83
2022/08/17 09:10:15;;;;;;;5.00;4.50;;;;;;;45.39;22.08;99730.84;6010423;23;97358;-83
2022/08/17 09:12:59;;;;;;;7.15;4.40;;;;;;;45.20;21.15;99716.94;6035376;23;101619;-82
2022/08/17 09:15:46;;;;;;;7.20;4.60;;;;;;;44.64;21.42;99725.84;6012416;23;101056;-82
2022/08/17 09:18:22;;;;;;;5.65;4.45;;;;;;;44.64;21.72;99732.22;6035523;23;97126;-82
2022/08/17 09:20:55;;;;;;;4.72;4.22;;;;;;;44.56;21.95;99724.53;6037179;23;97326;-84
2022/08/17 09:23:39;;;;;;;8.65;4.57;;;;;;;44.44;22.50;99726.88;6034965;23;101697;-85
2022/08/17 09:26:12;;;;;;;4.68;4.20;;;;;;;44.37;21.61;99723.63;6035830;23;101099;-85
2022/08/17 09:28:41;;;;;;;8.57;4.05;;;;;;;44.44;22.29;99721.34;6012556;23;97216;-85
2022/08/17 09:31:34;;;;;;;;;;;;;;;43.66;23.87;99731.28;6012091;23;97019;-83
2022/08/17 09:34:07;;;;;;;8.30;4.50;;;;;;;42.73;23.56;99725.25;6031718;23;99789;-83
2022/08/17 09:36:49;;;;;;;7.38;4.55;;;;;;;42.32;24.82;99720.84;6012582;23;101082;-83
2022/08/17 09:39:27;;;;;;;7.05;4.18;;;;;;;42.82;24.88;99717.22;6035697;23;97205;-78
2022/08/17 09:42:04;;;;;;;7.53;4.88;;;;;;;41.75;25.04;99712.50;6060909;23;97088;-78
2022/08/17 09:44:54;;;;;;;6.47;4.53;;;;;;;41.19;24.29;99715.03;6084017;23;97307;-79
2022/08/17 09:47:48;;;;;;;8.55;5.07;;;;;;;40.38;25.91;99729.06;6059507;23;98016;-78
2022/08/17 09:50:20;;;;;;;4.85;4.20;;;;;;;39.88;26.61;99728.31;6036157;23;97153;-82
2022/08/17 09:52:46;;;;;;;5.53;4.40;;;;;;;40.03;27.52;99735.91;6011847;23;97603;-81
2022/08/17 09:55:12;;;;;;;10.75;4.65;;;;;;;39.72;27.28;99731.97;6035645;23;101194;-81
2022/08/17 09:58:10;;;;;;;5.18;4.45;;;;;;;39.16;26.98;99735.69;6036344;23;100945;-80
2022/08/17 10:00:39;;;;;;;5.70;4.40;;;;;;;38.87;27.86;99718.56;5973429;23;96755;-81
2022/08/17 10:03:24;;;;;;;5.38;4.68;;;;;;;38.71;27.83;99698.25;6060453;23;97330;-83
2022/08/17 10:06:12;;;;;;;5.65;4.32;;;;;;;38.87;28.84;99717.72;6036150;23;101067;-81
2022/08/17 10:09:06;;;;;;;6.53;4.22;;;;;;;38.92;29.10;99728.75;6033781;23;101535;-79
2022/08/17 10:14:56;;;;;;;9.68;4.70;;;;;;;38.68;28.15;99720.72;6085479;23;97173;-81
2022/08/17 10:18:00;;;;;;;7.20;4.85;;;;;;;38.52;28.77;99724.31;6034384;23;101230;-81
2022/08/17 10:20:33;;;;;;;6.80;4.38;;;;;;;38.31;30.22;99719.53;6059934;23;97430;-80
2022/08/17 10:26:23;;;;;;;5.35;3.90;;;;;;;36.97;29.22;99717.97;6003318;23;96962;-82
2022/08/17 10:28:52;;;;;;;7.75;4.63;;;;;;;36.90;30.29;99738.06;6060415;23;97609;-81
2022/08/17 10:31:28;;;;;;;5.55;4.25;;;;;;;36.97;30.57;99731.63;6060228;23;98148;-81
2022/08/17 10:34:16;;;;;;;7.68;4.15;;;;;;;36.88;31.63;99742.94;6036244;23;97125;-80
2022/08/17 10:36:45;;;;;;;5.78;4.78;;;;;;;36.76;31.58;99722.16;6062965;23;97090;-81
2022/08/17 10:39:44;;;;;;;4.80;4.35;;;;;;;36.60;30.40;99730.00;6060789;23;98037;-81
2022/08/17 10:42:34;;;;;;;7.40;4.78;;;;;;;36.26;30.15;99737.06;6036870;23;101332;-85
2022/08/17 10:45:06;;;;;;;5.65;4.30;;;;;;;35.85;31.64;99726.94;6037479;23;97159;-82
2022/08/17 10:47:58;;;;;;;8.95;5.07;;;;;;;35.71;31.52;99739.94;6036755;23;97370;-81
2022/08/17 10:50:48;;;;;;;7.25;4.50;;;;;;;35.49;31.29;99745.00;6038167;23;100303;-81
2022/08/17 10:53:32;;;;;;;7.05;4.40;;;;;;;35.33;31.71;99741.00;6037124;23;101485;-81
2022/08/17 10:56:13;;;;;;;4.75;4.30;;;;;;;35.18;33.35;99741.38;6062111;23;97106;-81
2022/08/17 10:58:56;;;;;;;7.30;4.63;;;;;;;35.16;33.52;99743.50;6087262;23;97997;-82
2022/08/17 11:01:36;;;;;;;6.38;4.13;;;;;;;35.20;31.95;99749.31;6011841;23;100817;-81
2022/08/17 11:04:17;;;;;;;7.05;5.00;;;;;;;35.09;33.39;99748.22;6061357;23;101506;-76
2022/08/17 11:06:52;;;;;;;6.75;4.30;;;;;;;35.05;33.27;99749.69;6035399;23;97210;-82
2022/08/17 11:09:57;;;;;;;9.30;5.13;;;;;;;34.94;33.83;99734.91;6088840;23;96630;-80
2022/08/17 11:13:00;;;;;;;6.00;4.63;;;;;;;34.84;33.11;99740.03;6038395;23;101235;-82
2022/08/17 11:15:49;;;;;;;8.77;4.65;;;;;;;34.63;32.90;99742.13;6086791;23;97449;-82
2022/08/17 11:18:26;;;;;;;7.90;5.23;;;;;;;34.47;32.73;99734.47;6063827;23;97199;-82
2022/08/17 11:21:02;;;;;;;6.20;4.80;;;;;;;34.24;32.60;99724.19;6064371;23;96965;-82
2022/08/17 11:23:56;;;;;;;6.35;5.00;;;;;;;34.24;32.63;99738.63;6038048;23;101830;-82
2022/08/17 11:26:25;;;;;;;5.82;4.50;;;;;;;34.07;32.68;99731.22;6062663;23;97848;-78
2022/08/17 11:28:57;;;;;;;6.20;4.95;;;;;;;33.98;32.96;99731.47;6038770;23;96913;-77
2022/08/17 11:31:41;;;;;;;7.47;4.55;;;;;;;34.02;33.08;99731.84;6014523;23;97083;-78
2022/08/17 11:34:17;;;;;;;5.75;5.00;;;;;;;33.76;32.37;99717.34;6038711;23;97930;-78
2022/08/17 11:37:00;;;;;;;7.18;4.60;;;;;;;33.92;31.95;99736.91;6087902;23;97804;-77
2022/08/17 11:39:36;;;;;;;9.48;4.80;;;;;;;33.82;32.85;99723.78;6061244;23;97332;-77
2022/08/17 11:42:33;;;;;;;9.65;5.40;;;;;;;33.65;33.65;99725.34;6038481;23;97138;-77
2022/08/17 11:45:27;;;;;;;9.50;4.85;;;;;;;33.55;33.93;99732.09;6062051;23;97390;-77
2022/08/17 11:54:09;;;;;;;6.93;4.38;;;;;;;33.57;32.72;99710.97;6090797;23;97080;-79
2022/08/17 11:56:40;;;;;;;5.55;4.35;;;;;;;33.50;33.41;99720.16;6014324;23;100790;-80
2022/08/17 11:59:40;;;;;;;7.20;3.92;;;;;;;33.56;33.64;99716.59;6064410;23;97893;-79
2022/08/17 12:02:18;;;;;;;5.47;4.20;;;;;;;33.55;34.85;99715.78;6039197;23;97027;-78
2022/08/17 12:05:24;;;;;;;9.35;4.60;;;;;;;33.63;33.08;99712.00;6036968;23;97389;-78
2022/08/17 12:08:16;;;;;;;9.68;4.70;;;;;;;33.51;33.52;99684.63;6039650;23;101087;-77
2022/08/17 12:10:57;;;;;;;4.63;4.00;;;;;;;33.56;32.99;99703.00;6063081;23;97945;-78
2022/08/17 12:13:23;;;;;;;3.90;3.50;;;;;;;33.64;33.72;99701.94;6038767;23;97209;-78
2022/08/17 12:15:51;;;;;;;7.60;4.25;;;;;;;33.68;32.97;99698.53;6064292;23;96743;-78
2022/08/17 12:18:27;;;;;;;7.70;4.45;;;;;;;33.68;31.77;99703.97;6062815;23;97425;-79
2022/08/17 12:21:15;;;;;;;4.13;3.72;;;;;;;33.44;32.42;99691.94;6014300;23;100805;-78
2022/08/17 12:23:49;;;;;;;5.45;4.55;;;;;;;33.52;32.57;99699.91;6062203;23;96887;-78
2022/08/17 12:26:20;;;;;;;9.50;4.30;;;;;;;33.43;32.42;99698.44;6062881;23;97203;-78
2022/08/17 12:28:48;;;;;;;4.90;4.00;;;;;;;33.58;32.98;99690.84;6038405;23;101044;-78